Flight Track Log - Related Links

Times and Time Zones

All times are in EDT time to prevent confusion due to time zone crossing. See the EJA829P flight status page for this flight to view local times or setup timezone preferences in your user account.

Time Position Orientation Groundspeed Altitude Reporting Facility
EDT Latitude Longitude Course Direction KTS MPH feet Rate Location/Type
Sun 08:38:00 PM 41.0125 -83.5553 77° East 226 260 6,100  Level Cleveland Center
Sun 08:39:00 PM 41.0378 -83.4544 72° East 275 316 9,400 1,950 Climbing Cleveland Center
Sun 08:40:00 PM 41.0656 -83.3456 71° East 296 341 10,000 2,100 Climbing Cleveland Center
Sun 08:41:00 PM 41.0933 -83.2308 72° East 321 369 13,600 3,400 Climbing Cleveland Center
Sun 08:42:00 PM 41.1164 -83.1272 74° East 313 360 16,800 2,800 Climbing Cleveland Center
Sun 08:43:00 PM 41.1923 -82.8630 77° East  Level FlightAware Approximate
Sun 08:43:00 PM 41.1067 -83.0056 96° East 308 354 19,200  Level Cleveland Center
Sun 08:44:00 PM 41.1258 -82.8850 78° East 320 368 21,800 2,400 Climbing Cleveland Center
Sun 08:45:00 PM 41.1553 -82.7700 71° East 325 374 24,000 2,100 Climbing Cleveland Center
Sun 08:46:00 PM 41.1867 -82.6442 72° East 340 391 26,000 2,000 Climbing Cleveland Center
Sun 08:47:00 PM 41.2161 -82.5153 73° East 353 406 28,000 1,850 Climbing Cleveland Center
Sun 08:48:00 PM 41.2472 -82.3892 72° East 358 412 29,700 1,350 Climbing Cleveland Center
Sun 08:49:00 PM 41.2786 -82.2547 73° East 370 426 30,700 1,000 Climbing Cleveland Center
Sun 08:50:00 PM 41.3161 -82.1119 71° East 392 451 31,700 1,000 Climbing Cleveland Center
Sun 08:51:00 PM 41.3469 -81.9661 74° East 402 463 32,700 650 Climbing Cleveland Center
Sun 08:52:00 PM 41.3842 -81.8147 72° East 408 470 33,000 150 Climbing Cleveland Center
Sun 08:53:00 PM 41.4169 -81.6631 74° East 414 476 33,000  Level Cleveland Center
Sun 08:54:00 PM 41.4517 -81.5056 74° East 438 504 33,000  Level Cleveland Center
Sun 08:55:00 PM 41.4842 -81.3508 74° East 438 504 33,000  Level Cleveland Center
Sun 08:56:00 PM 41.5206 -81.1906 73° East 438 504 33,000  Level Cleveland Center
Sun 08:57:00 PM 41.5567 -81.0328 73° East 433 498 33,000  Level Cleveland Center
Sun 08:58:00 PM 41.5906 -80.8775 74° East 434 499 33,000  Level Cleveland Center
Sun 08:59:00 PM 41.6200 -80.7331 75° East 439 505 33,000  Level Cleveland Center
Sun 09:00:00 PM 41.6556 -80.5747 73° East 439 505 33,000  Level Cleveland Center
Sun 09:01:00 PM 41.6908 -80.4164 73° East 439 505 33,000  Level Cleveland Center
Sun 09:02:00 PM 41.7261 -80.2547 74° East 439 505 33,000  Level Cleveland Center
Sun 09:03:00 PM 41.7589 -80.0933 75° East 439 505 33,000  Level Cleveland Center
Sun 09:04:00 PM 41.7914 -79.9314 75° East 439 505 33,000  Level Cleveland Center
Sun 09:05:00 PM 41.8258 -79.7694 74° East 439 505 33,000  Level Cleveland Center
Sun 09:06:00 PM 41.8619 -79.6072 73° East 444 511 33,000  Level Cleveland Center
Sun 09:07:00 PM 41.9106 -79.4475 68° East 450 518 33,000  Level Cleveland Center
Sun 09:08:00 PM 41.9778 -79.2956 59° Northeast 455 524 33,000  Level Cleveland Center
Sun 09:09:00 PM 42.0469 -79.1458 58° Northeast 462 532 33,000  Level Cleveland Center
Sun 09:10:00 PM 42.1136 -78.9933 59° Northeast 467 537 33,000  Level Cleveland Center
Sun 09:11:00 PM 42.1781 -78.8403 60° Northeast 473 544 33,000  Level Cleveland Center
Sun 09:12:00 PM 42.2506 -78.6728 60° Northeast 473 544 33,000  Level Cleveland Center
Sun 09:13:00 PM 42.3167 -78.5192 60° Northeast 473 544 33,000  Level Cleveland Center
Sun 09:14:00 PM 42.3828 -78.3681 59° Northeast 473 544 33,000  Level Cleveland Center
Sun 09:15:00 PM 42.4486 -78.2194 59° Northeast 468 539 33,000  Level Cleveland Center
Sun 09:16:00 PM 42.4783 -78.0550 76° East 451 519 33,000  Level Cleveland Center
Sun 09:17:00 PM 42.4789 -77.8889 90° East 432 497 33,000  Level Cleveland Center
Sun 09:18:00 PM 42.4853 -77.7308 87° East 432 497 33,000  Level Cleveland Center
Sun 09:20:05 PM 42.4861 -77.3936 90° East 425 489 33,000  Level Boston Center
Sun 09:21:05 PM 42.4886 -77.2417 89° East 407 468 33,000  Level Boston Center
Sun 09:22:05 PM 42.4908 -77.0839 89° East 412 474 33,000  Level Boston Center
Sun 09:23:05 PM 42.4911 -76.9261 90° East 417 480 33,000  Level Boston Center
Sun 09:24:05 PM 42.4928 -76.7714 89° East 417 480 33,000  Level Boston Center
Sun 09:25:05 PM 42.4944 -76.6167 89° East 417 480 33,000  Level Boston Center
Sun 09:26:17 PM 42.4919 -76.4586 91° East 417 480 33,000 -455 Level Boston Center
Sun 09:27:17 PM 42.4567 -76.2733 104° East 422 486 32,000 -1,050 Descending Boston Center
Sun 09:28:17 PM 42.4242 -76.1167 106° East 428 493 30,900 -1,050 Descending Boston Center
Sun 09:29:17 PM 42.3917 -75.9572 105° East 438 504 29,900 -1,000 Descending Boston Center
Sun 09:30:17 PM 42.3572 -75.7922 106° East 445 512 28,900 -1,000 Descending Boston Center
Sun 09:31:17 PM 42.3222 -75.6275 106° East 450 518 27,900 -1,700 Descending Boston Center
Sun 09:32:17 PM 42.2892 -75.4658 105° East 450 518 25,500 -2,450 Descending Boston Center
Sun 09:33:17 PM 42.2578 -75.3100 105° East 440 506 23,000 -2,273 Descending Boston Center
Sun 09:34:29 PM 42.2242 -75.1569 106° East 435 501 20,500 -1,923 Descending Boston Center
Sun 09:35:53 PM 42.1744 -74.9586 109° East 406 467 18,000 -1,042 Descending Boston Center
Sun 09:36:53 PM 42.1111 -74.7994 118° Southeast 401 461 18,000 -900 Level Boston Center
Sun 09:37:53 PM 42.0575 -74.6742 120° Southeast 395 455 16,200 -2,450 Descending Boston Center
Sun 09:38:53 PM 42.0078 -74.5497 118° Southeast 379 436 13,100 -2,650 Descending Boston Center
Sun 09:39:53 PM 41.9678 -74.4561 120° Southeast 366 421 10,900 -1,550 Descending Boston Center
Sun 09:40:53 PM 41.9097 -74.3203 120° Southeast 356 410 10,000 -800 Descending Boston Center
Sun 09:41:53 PM 41.8567 -74.2436 133° Southeast 327 376 9,300 -950 Descending Boston Center
Sun 09:42:53 PM 41.8053 -74.1975 146° Southeast 300 345 8,100 -1,150 Descending Boston Center
Sun 09:43:53 PM 41.7250 -74.1286 147° Southeast 290 334 7,000 -700 Descending Boston Center
Sun 09:44:53 PM 41.6572 -74.0711 148° Southeast 285 328 6,700 -500 Descending Boston Center
Sun 09:45:53 PM 41.5850 -74.0081 147° Southeast 285 328 6,000 -265 Descending Boston Center
Sun 09:47:09 PM 41.5000 -73.9333 147° Southeast 280 322 6,100 44 Climbing New York TRACON
Sun 09:48:09 PM 41.4333 -73.8833 151° Southeast 281 323 6,100  Level New York TRACON
Sun 09:49:15 PM 41.3667 -73.8167 143° Southeast 286 329 6,100  Level New York TRACON
Sun 09:50:15 PM 41.3000 -73.7500 143° Southeast 287 330 6,100 -556 Level New York TRACON
Sun 09:51:03 PM 41.2500 -73.7167 153° Southeast 287 330 5,100 -1,316 Descending New York TRACON
Sun 09:52:09 PM 41.1667 -73.6500 149° Southeast 281 323 3,600 -1,000 Descending New York TRACON
Sun 09:53:09 PM 41.1167 -73.5833 135° Southeast 256 295 3,000 -238 Descending New York TRACON
Sun 09:54:15 PM 41.0667 -73.5500 153° Southeast 206 237 3,100 -381 Climbing New York TRACON
Sun 09:55:15 PM 41.0000 -73.5333 169° South 205 236 2,200 -500 Descending New York TRACON
Sun 09:56:15 PM 40.9667 -73.5667 217° Southwest 181 208 2,100 -50 Descending New York TRACON
Sun 09:57:15 PM 40.9833 -73.6333 288° West 192 221 2,100 -350 Level New York TRACON
Sun 09:58:15 PM 41.0167 -73.6667 323° Northwest 173 199 1,400 -650 Descending New York TRACON
Sun 09:59:15 PM 41.0500 -73.7000 323° Northwest 114 131 800 -600 Descending New York TRACON
Sun 10:01:00 PM 41.0667 -73.7000 315° West  Level FlightAware Approximate
Sun 10:08:00 PM 41.0669 -73.7076 315° West  Level Estimated

Login

Don't have an account? Register now (free) for customized features, flight alerts, and more!